Observation data for Paducah on 11/09/2019      Previous  Date       Current Mesonet Observations  Soil Data  Daily Summary Page  Observations in Plain Language
KPAD 090600Z 21009KT 04/03 A3027 RMK A01 T00430031  RH  093%=      5-min Rain = 0
KPAD 090605Z 22009KT 04/03 A3027 RMK A01 T00440032  RH  093%=      5-min Rain = 0
KPAD 090610Z 22009KT 05/03 A3026 RMK A01 T00450033  RH  093%=      5-min Rain = 0
KPAD 090615Z 22008KT 05/03 A3026 RMK A01 T00460033  RH  093%=      5-min Rain = 0
KPAD 090620Z 22008KT 05/03 A3026 RMK A01 T00470034  RH  093%=      5-min Rain = 0
KPAD 090625Z 22008KT 05/04 A3026 RMK A01 T00480036  RH  093%=      5-min Rain = 0
KPAD 090630Z 22008KT 05/04 A3026 RMK A01 T00500037  RH  093%=      5-min Rain = 0
KPAD 090635Z 21008KT 05/04 A3026 RMK A01 T00500037  RH  093%=      5-min Rain = 0
KPAD 090640Z 21007KT 05/04 A3026 RMK A01 T00500037  RH  093%=      5-min Rain = 0
KPAD 090645Z 21006KT 05/04 A3026 RMK A01 T00500037  RH  093%=      5-min Rain = 0
KPAD 090650Z 21005KT 05/04 A3026 RMK A01 T00490036  RH  093%=      5-min Rain = 0
KPAD 090655Z 22004KT 05/03 A3026 RMK A01 T00470034  RH  093%=      5-min Rain = 0
KPAD 090700Z 22003KT 05/03 A3026 RMK A01 T00450032  RH  093%=      5-min Rain = 0
KPAD 090705Z 22003KT 04/03 A3026 RMK A01 T00430030  RH  093%=      5-min Rain = 0
KPAD 090710Z 20002KT 04/03 A3026 RMK A01 T00410029  RH  093%=      5-min Rain = 0
KPAD 090715Z 20003KT 04/03 A3026 RMK A01 T00390026  RH  093%=      5-min Rain = 0
KPAD 090720Z 21003KT 04/02 A3026 RMK A01 T00350023  RH  093%=      5-min Rain = 0
KPAD 090725Z 21003KT 03/02 A3026 RMK A01 T00330022  RH  094%=      5-min Rain = 0
KPAD 090730Z 21004KT 03/02 A3025 RMK A01 T00320021  RH  094%=      5-min Rain = 0
KPAD 090735Z 21005KT 03/02 A3025 RMK A01 T00310020  RH  094%=      5-min Rain = 0
KPAD 090740Z 20005KT 03/02 A3025 RMK A01 T00310021  RH  095%=      5-min Rain = 0
KPAD 090745Z 21005KT 03/02 A3024 RMK A01 T00320022  RH  095%=      5-min Rain = 0
KPAD 090750Z 22005KT 03/02 A3024 RMK A01 T00320023  RH  095%=      5-min Rain = 0
KPAD 090755Z 22005KT 03/02 A3024 RMK A01 T00310022  RH  095%=      5-min Rain = 0
KPAD 090800Z 23004KT 03/02 A3024 RMK A01 T00310022  RH  095%=      5-min Rain = 0
KPAD 090805Z 23005KT 03/02 A3024 RMK A01 T00300021  RH  095%=      5-min Rain = 0
KPAD 090810Z 22005KT 03/02 A3024 RMK A01 T00270018  RH  095%=      5-min Rain = 0
KPAD 090815Z 22005KT 03/02 A3024 RMK A01 T00270019  RH  096%=      5-min Rain = 0
KPAD 090820Z 22006KT 03/02 A3024 RMK A01 T00310024  RH  096%=      5-min Rain = 0
KPAD 090825Z 22005KT 03/03 A3024 RMK A01 T00340026  RH  096%=      5-min Rain = 0
KPAD 090830Z 22005KT 03/03 A3024 RMK A01 T00340027  RH  096%=      5-min Rain = 0
KPAD 090835Z 22005KT 04/03 A3023 RMK A01 T00360028  RH  096%=      5-min Rain = 0
KPAD 090840Z 23004KT 04/03 A3023 RMK A01 T00380030  RH  097%=      5-min Rain = 0
KPAD 090845Z 23002KT 04/03 A3023 RMK A01 T00390031  RH  097%=      5-min Rain = 0
KPAD 090850Z 22001KT 04/03 A3023 RMK A01 T00370029  RH  096%=      5-min Rain = 0
KPAD 090855Z 24001KT 04/03 A3023 RMK A01 T00370029  RH  096%=      5-min Rain = 0
KPAD 090900Z 23001KT 04/03 A3023 RMK A01 T00380031  RH  097%=      5-min Rain = 0
KPAD 090905Z 22002KT 04/03 A3023 RMK A01 T00410034  RH  097%=      5-min Rain = 0
KPAD 090910Z 22003KT 04/04 A3022 RMK A01 T00430036  RH  097%=      5-min Rain = 0
KPAD 090915Z 22003KT 04/04 A3022 RMK A01 T00420035  RH  097%=      5-min Rain = 0
KPAD 090920Z 21003KT 04/03 A3022 RMK A01 T00400033  RH  097%=      5-min Rain = 0
KPAD 090925Z 20003KT 04/04 A3022 RMK A01 T00420035  RH  097%=      5-min Rain = 0
KPAD 090930Z 21004KT 04/04 A3022 RMK A01 T00430036  RH  097%=      5-min Rain = 0
KPAD 090935Z 22005KT 04/04 A3022 RMK A01 T00440036  RH  097%=      5-min Rain = 0
KPAD 090940Z 22004KT 04/04 A3022 RMK A01 T00440037  RH  097%=      5-min Rain = 0
KPAD 090945Z 23005KT 04/04 A3021 RMK A01 T00430036  RH  097%=      5-min Rain = 0
KPAD 090950Z 24004KT 04/04 A3021 RMK A01 T00430035  RH  097%=      5-min Rain = 0
KPAD 090955Z 23005KT 04/04 A3021 RMK A01 T00430036  RH  097%=      5-min Rain = 0
KPAD 091000Z 23005KT 04/03 A3021 RMK A01 T00400032  RH  097%=      5-min Rain = 0
KPAD 091005Z 22005KT 04/03 A302 RMK A01 T00350028  RH  097%=      5-min Rain = 0
KPAD 091010Z 21006KT 04/03 A302 RMK A01 T00350029  RH  097%=      5-min Rain = 0
KPAD 091015Z 20006KT 04/03 A302 RMK A01 T00380032  RH  097%=      5-min Rain = 0
KPAD 091020Z 21006KT 04/03 A302 RMK A01 T00370030  RH  097%=      5-min Rain = 0
KPAD 091025Z 22007KT 04/03 A302 RMK A01 T00360029  RH  097%=      5-min Rain = 0
KPAD 091030Z 23007KT 04/03 A3019 RMK A01 T00380033  RH  098%=      5-min Rain = 0
KPAD 091035Z 23007KT 04/04 A3019 RMK A01 T00410035  RH  098%=      5-min Rain = 0
KPAD 091040Z 25008KT 06/05 A302 RMK A01 T00550050  RH  099%=      5-min Rain = 0
KPAD 091045Z 25008KT 06/06 A3019 RMK A01 T00640059  RH  098%=      5-min Rain = 0
KPAD 091050Z 25008KT 07/06 A3019 RMK A01 T00660059  RH  097%=      5-min Rain = 0
KPAD 091055Z 24008KT 07/06 A3019 RMK A01 T00670059  RH  097%=      5-min Rain = 0
KPAD 091100Z 25008KT 07/06 A3019 RMK A01 T00660058  RH  097%=      5-min Rain = 0
KPAD 091105Z 25008KT 07/06 A3019 RMK A01 T00660057  RH  096%=      5-min Rain = 0
KPAD 091110Z 24006KT 07/06 A3019 RMK A01 T00650056  RH  096%=      5-min Rain = 0
KPAD 091115Z 25006KT 06/05 A3019 RMK A01 T00630054  RH  096%=      5-min Rain = 0
KPAD 091120Z 24006KT 06/05 A3019 RMK A01 T00620053  RH  096%=      5-min Rain = 0
KPAD 091125Z 22006KT 06/05 A3019 RMK A01 T00560046  RH  095%=      5-min Rain = 0
KPAD 091130Z 23007KT 05/04 A3019 RMK A01 T00510042  RH  096%=      5-min Rain = 0
KPAD 091135Z 23008KT 05/04 A3019 RMK A01 T00490041  RH  096%=      5-min Rain = 0
KPAD 091140Z 23006KT 05/04 A3019 RMK A01 T00520044  RH  097%=      5-min Rain = 0
KPAD 091145Z 24006KT 05/05 A3018 RMK A01 T00520045  RH  097%=      5-min Rain = 0
KPAD 091150Z 24006KT 05/05 A3019 RMK A01 T00540046  RH  097%=      5-min Rain = 0
KPAD 091155Z 23006KT 05/05 A3018 RMK A01 T00540046  RH  097%=      5-min Rain = 0
KPAD 091200Z 24007KT 05/05 A3019 RMK A01 T00540046  RH  097%=      5-min Rain = 0
KPAD 091205Z 24008KT 06/05 A3018 RMK A01 T00600053  RH  098%=      5-min Rain = 0
KPAD 091210Z 24008KT 06/06 A3018 RMK A01 T00640057  RH  097%=      5-min Rain = 0
KPAD 091215Z 24008KT 07/06 A3019 RMK A01 T00650057  RH  097%=      5-min Rain = 0
KPAD 091220Z 25008KT 07/06 A3019 RMK A01 T00650057  RH  096%=      5-min Rain = 0
KPAD 091225Z 25008KT 07/06 A3019 RMK A01 T00660058  RH  096%=      5-min Rain = 0
KPAD 091230Z 26008KT 07/06 A3019 RMK A01 T00690060  RH  096%=      5-min Rain = 0
KPAD 091235Z 26009KT 07/06 A3019 RMK A01 T00720063  RH  096%=      5-min Rain = 0
KPAD 091240Z 26009KT 07/06 A3019 RMK A01 T00740064  RH  096%=      5-min Rain = 0
KPAD 091245Z 26008KT 07/06 A3019 RMK A01 T00740064  RH  096%=      5-min Rain = 0
KPAD 091250Z 26009KT 08/07 A3019 RMK A01 T00750065  RH  096%=      5-min Rain = 0
KPAD 091255Z 27009KT 08/07 A302 RMK A01 T00770066  RH  095%=      5-min Rain = 0
KPAD 091300Z 27010KT 08/07 A3019 RMK A01 T00780067  RH  095%=      5-min Rain = 0
KPAD 091305Z 27011KT 08/07 A3019 RMK A01 T00800068  RH  094%=      5-min Rain = 0
KPAD 091310Z 28012KT 08/07 A3019 RMK A01 T00830069  RH  094%=      5-min Rain = 0
KPAD 091315Z 28011KT 08/07 A3019 RMK A01 T00840069  RH  093%=      5-min Rain = 0
KPAD 091320Z 28012KT 09/07 A3019 RMK A01 T00850069  RH  092%=      5-min Rain = 0
KPAD 091325Z 27012KT 09/07 A3019 RMK A01 T00860069  RH  091%=      5-min Rain = 0
KPAD 091330Z 27011KT 09/07 A3019 RMK A01 T00870069  RH  090%=      5-min Rain = 0
KPAD 091335Z 27011KT 09/07 A3019 RMK A01 T00880068  RH  090%=      5-min Rain = 0
KPAD 091340Z 27011KT 09/07 A3019 RMK A01 T00880068  RH  089%=      5-min Rain = 0
KPAD 091345Z 27010KT 09/07 A3019 RMK A01 T00890068  RH  089%=      5-min Rain = 0
KPAD 091350Z 26009KT 09/07 A302 RMK A01 T00900068  RH  089%=      5-min Rain = 0
KPAD 091355Z 26009KT 09/07 A302 RMK A01 T00920070  RH  089%=      5-min Rain = 0
KPAD 091400Z 25007KT 09/07 A302 RMK A01 T00940072  RH  088%=      5-min Rain = 0
KPAD 091405Z 25009KT 10/07 A302 RMK A01 T00960073  RH  088%=      5-min Rain = 0
KPAD 091410Z 25009KT 10/07 A302 RMK A01 T00980074  RH  087%=      5-min Rain = 0
KPAD 091415Z 26008KT 10/07 A302 RMK A01 T01000074  RH  086%=      5-min Rain = 0
KPAD 091420Z 25008KT 10/07 A302 RMK A01 T01010074  RH  086%=      5-min Rain = 0
KPAD 091425Z 25009KT 10/08 A302 RMK A01 T01020075  RH  085%=      5-min Rain = 0
KPAD 091430Z 25008KT 10/08 A302 RMK A01 T01030076  RH  085%=      5-min Rain = 0
KPAD 091435Z 25009KT 10/08 A3021 RMK A01 T01040077  RH  085%=      5-min Rain = 0
KPAD 091440Z 26008KT 11/08 A3021 RMK A01 T01080080  RH  085%=      5-min Rain = 0
KPAD 091445Z 26010KT 11/08 A3021 RMK A01 T01120082  RH  084%=      5-min Rain = 0
KPAD 091450Z 26010KT 12/08 A3021 RMK A01 T01160083  RH  083%=      5-min Rain = 0
KPAD 091455Z 26009KT 12/09 A3021 RMK A01 T01210085  RH  081%=      5-min Rain = 0
KPAD 091500Z 26009KT 13/09 A3021 RMK A01 T01260087  RH  079%=      5-min Rain = 0
KPAD 091505Z 26009KT 13/09 A3021 RMK A01 T01310087  RH  077%=      5-min Rain = 0
KPAD 091510Z 26006KT 14/09 A3021 RMK A01 T01360089  RH  075%=      5-min Rain = 0
KPAD 091515Z 26006KT 14/09 A3022 RMK A01 T01400089  RH  074%=      5-min Rain = 0
KPAD 091520Z 28006KT 14/09 A3022 RMK A01 T01420089  RH  073%=      5-min Rain = 0
KPAD 091525Z 28006KT 14/09 A3022 RMK A01 T01440088  RH  071%=      5-min Rain = 0
KPAD 091530Z 29007KT 15/09 A3022 RMK A01 T01460087  RH  070%=      5-min Rain = 0
KPAD 091535Z 28006KT 15/09 A3022 RMK A01 T01480087  RH  069%=      5-min Rain = 0
KPAD 091540Z 27004KT 15/09 A3022 RMK A01 T01500086  RH  067%=      5-min Rain = 0
KPAD 091545Z 29004KT 15/09 A3022 RMK A01 T01530088  RH  067%=      5-min Rain = 0
KPAD 091550Z 29004KT 16/09 A3022 RMK A01 T01560088  RH  065%=      5-min Rain = 0
KPAD 091555Z 29003KT 16/09 A3022 RMK A01 T01590087  RH  064%=      5-min Rain = 0
KPAD 091600Z 27004KT 16/09 A3022 RMK A01 T01610086  RH  063%=      5-min Rain = 0
KPAD 091605Z 25005KT 16/09 A3022 RMK A01 T01620086  RH  062%=      5-min Rain = 0
KPAD 091610Z 26004KT 17/09 A3022 RMK A01 T01650085  RH  061%=      5-min Rain = 0
KPAD 091615Z 28004KT 17/09 A3022 RMK A01 T01670085  RH  060%=      5-min Rain = 0
KPAD 091620Z 28004KT 17/08 A3022 RMK A01 T01690084  RH  059%=      5-min Rain = 0
KPAD 091625Z 28005KT 17/08 A3022 RMK A01 T01710082  RH  057%=      5-min Rain = 0
KPAD 091630Z 27004KT 18/08 A3021 RMK A01 T01750081  RH  056%=      5-min Rain = 0
KPAD 091635Z 28005KT 18/08 A3021 RMK A01 T01790081  RH  054%=      5-min Rain = 0
KPAD 091640Z 28004KT 18/08 A3021 RMK A01 T01830084  RH  054%=      5-min Rain = 0
KPAD 091645Z 28005KT 19/08 A3021 RMK A01 T01870083  RH  052%=      5-min Rain = 0
KPAD 091650Z 27006KT 19/08 A3021 RMK A01 T01890082  RH  051%=      5-min Rain = 0
KPAD 091655Z 28005KT 19/08 A3021 RMK A01 T01920081  RH  050%=      5-min Rain = 0
KPAD 091700Z 28007KT 20/08 A3021 RMK A01 T01960079  RH  048%=      5-min Rain = 0
KPAD 091705Z 27007KT 20/08 A3021 RMK A01 T01970078  RH  048%=      5-min Rain = 0
KPAD 091710Z 28007KT 20/08 A3021 RMK A01 T01990078  RH  047%=      5-min Rain = 0
KPAD 091715Z 26006KT 20/08 A302 RMK A01 T02020078  RH  046%=      5-min Rain = 0
KPAD 091720Z 25006KT 20/08 A302 RMK A01 T02040081  RH  046%=      5-min Rain = 0
KPAD 091725Z 26006KT 21/09 A302 RMK A01 T02050086  RH  048%=      5-min Rain = 0
KPAD 091730Z 26006G11KT 21/09 A302 RMK A01 T02080090  RH  048%=      5-min Rain = 0
KPAD 091735Z 23008KT 21/09 A3019 RMK A01 T02120085  RH  045%=      5-min Rain = 0
KPAD 091740Z 23007KT 21/08 A3019 RMK A01 T02140081  RH  043%=      5-min Rain = 0
KPAD 091745Z 23007KT 22/08 A3018 RMK A01 T02180080  RH  042%=      5-min Rain = 0
KPAD 091750Z 23007KT 22/08 A3018 RMK A01 T02190076  RH  041%=      5-min Rain = 0
KPAD 091755Z 25007KT 22/08 A3018 RMK A01 T02220075  RH  040%=      5-min Rain = 0
KPAD 091800Z 24007KT 23/07 A3017 RMK A01 T02250069  RH  037%=      5-min Rain = 0
KPAD 091805Z 23008G13KT 23/07 A3017 RMK A01 T02260068  RH  037%=      5-min Rain = 0
KPAD 091810Z 23009G14KT 23/07 A3017 RMK A01 T02300065  RH  035%=      5-min Rain = 0
KPAD 091815Z 22008KT 23/06 A3016 RMK A01 T02300062  RH  034%=      5-min Rain = 0
KPAD 091820Z 25008KT 23/06 A3016 RMK A01 T02320063  RH  034%=      5-min Rain = 0
KPAD 091825Z 22007G13KT 24/06 A3016 RMK A01 T02350063  RH  034%=      5-min Rain = 0
KPAD 091830Z 26008KT 24/06 A3015 RMK A01 T02360057  RH  032%=      5-min Rain = 0
KPAD 091835Z 25007G17KT 24/06 A3015 RMK A01 T02380060  RH  032%=      5-min Rain = 0
KPAD 091840Z 25005KT 24/06 A3015 RMK A01 T02420061  RH  032%=      5-min Rain = 0
KPAD 091845Z 27009KT 24/05 A3014 RMK A01 T02420049  RH  029%=      5-min Rain = 0
KPAD 091850Z 25007G12KT 24/05 A3014 RMK A01 T02420050  RH  030%=      5-min Rain = 0
KPAD 091855Z 25005KT 24/05 A3014 RMK A01 T02420053  RH  030%=      5-min Rain = 0
KPAD 091900Z 25008KT 24/04 A3014 RMK A01 T02430043  RH  028%=      5-min Rain = 0
KPAD 091905Z 25005KT 24/05 A3013 RMK A01 T02410050  RH  030%=      5-min Rain = 0
KPAD 091910Z 23007G13KT 25/06 A3013 RMK A01 T02460056  RH  030%=      5-min Rain = 0
KPAD 091915Z 23008KT 25/05 A3013 RMK A01 T02470050  RH  029%=      5-min Rain = 0
KPAD 091920Z 23007KT 25/04 A3012 RMK A01 T02470044  RH  027%=      5-min Rain = 0
KPAD 091925Z 23007G12KT 25/04 A3012 RMK A01 T02480040  RH  026%=      5-min Rain = 0
KPAD 091930Z 22010G15KT 25/05 A3012 RMK A01 T02490052  RH  029%=      5-min Rain = 0
KPAD 091935Z 23010KT 25/05 A3012 RMK A01 T02470048  RH  028%=      5-min Rain = 0
KPAD 091940Z 23010KT 25/05 A3012 RMK A01 T02470051  RH  029%=      5-min Rain = 0
KPAD 091945Z 26008KT 25/05 A3012 RMK A01 T02480050  RH  029%=      5-min Rain = 0
KPAD 091950Z 24009KT 25/05 A3011 RMK A01 T02490053  RH  029%=      5-min Rain = 0
KPAD 091955Z 23008KT 25/05 A3011 RMK A01 T02520053  RH  028%=      5-min Rain = 0
KPAD 092000Z 23009KT 25/05 A3011 RMK A01 T02520049  RH  028%=      5-min Rain = 0
KPAD 092005Z 24008KT 25/05 A3011 RMK A01 T02520051  RH  028%=      5-min Rain = 0
KPAD 092010Z 22009KT 26/05 A301 RMK A01 T02550048  RH  027%=      5-min Rain = 0
KPAD 092015Z 25009KT 25/05 A301 RMK A01 T02520046  RH  027%=      5-min Rain = 0
KPAD 092020Z 22009KT 25/04 A301 RMK A01 T02510044  RH  027%=      5-min Rain = 0
KPAD 092025Z 24008G14KT 25/05 A301 RMK A01 T02510046  RH  027%=      5-min Rain = 0
KPAD 092030Z 23009G15KT 25/04 A301 RMK A01 T02540039  RH  025%=      5-min Rain = 0
KPAD 092035Z 25010G15KT 26/04 A301 RMK A01 T02550042  RH  026%=      5-min Rain = 0
KPAD 092040Z 23011KT 25/04 A301 RMK A01 T02540043  RH  026%=      5-min Rain = 0
KPAD 092045Z 24008KT 25/04 A3009 RMK A01 T02530037  RH  025%=      5-min Rain = 0
KPAD 092050Z 24009KT 25/04 A3009 RMK A01 T02540037  RH  025%=      5-min Rain = 0
KPAD 092055Z 24008KT 25/04 A3009 RMK A01 T02530040  RH  026%=      5-min Rain = 0
KPAD 092100Z 23006KT 25/05 A3009 RMK A01 T02530047  RH  027%=      5-min Rain = 0
KPAD 092105Z 23008G14KT 25/05 A3009 RMK A01 T02540048  RH  027%=      5-min Rain = 0
KPAD 092110Z 21009G15KT 26/05 A3008 RMK A01 T02560050  RH  027%=      5-min Rain = 0
KPAD 092115Z 21009KT 26/05 A3008 RMK A01 T02550046  RH  027%=      5-min Rain = 0
KPAD 092120Z 23008KT 26/04 A3008 RMK A01 T02550040  RH  025%=      5-min Rain = 0
KPAD 092125Z 24007KT 25/04 A3008 RMK A01 T02530038  RH  025%=      5-min Rain = 0
KPAD 092130Z 24004KT 25/05 A3008 RMK A01 T02530052  RH  028%=      5-min Rain = 0
KPAD 092135Z 22007KT 25/05 A3008 RMK A01 T02520051  RH  028%=      5-min Rain = 0
KPAD 092140Z 20009KT 25/05 A3008 RMK A01 T02510050  RH  028%=      5-min Rain = 0
KPAD 092145Z 24006G11KT 25/05 A3008 RMK A01 T02530045  RH  027%=      5-min Rain = 0
KPAD 092150Z 24008KT 25/05 A3008 RMK A01 T02520046  RH  027%=      5-min Rain = 0
KPAD 092155Z 20008KT 25/05 A3007 RMK A01 T02510049  RH  028%=      5-min Rain = 0
KPAD 092200Z 19009KT 25/05 A3007 RMK A01 T02500052  RH  029%=      5-min Rain = 0
KPAD 092205Z 21010KT 25/04 A3007 RMK A01 T02470044  RH  027%=      5-min Rain = 0
KPAD 092210Z 20010KT 25/06 A3007 RMK A01 T02450058  RH  031%=      5-min Rain = 0
KPAD 092215Z 20010KT 24/06 A3007 RMK A01 T02430060  RH  032%=      5-min Rain = 0
KPAD 092220Z 20011KT 24/06 A3007 RMK A01 T02410061  RH  032%=      5-min Rain = 0
KPAD 092225Z 20010KT 24/06 A3007 RMK A01 T02390058  RH  032%=      5-min Rain = 0
KPAD 092230Z 20010KT 24/06 A3007 RMK A01 T02380057  RH  032%=      5-min Rain = 0
KPAD 092235Z 20009KT 24/06 A3007 RMK A01 T02370056  RH  032%=      5-min Rain = 0
KPAD 092240Z 20011KT 24/05 A3007 RMK A01 T02350053  RH  031%=      5-min Rain = 0
KPAD 092245Z 20009KT 23/05 A3007 RMK A01 T02330053  RH  032%=      5-min Rain = 0
KPAD 092250Z 20010KT 23/05 A3007 RMK A01 T02310052  RH  032%=      5-min Rain = 0
KPAD 092255Z 20008KT 23/05 A3007 RMK A01 T02290054  RH  033%=      5-min Rain = 0
KPAD 092300Z 20008KT 23/06 A3007 RMK A01 T02260055  RH  034%=      5-min Rain = 0
KPAD 092305Z 19007KT 22/06 A3007 RMK A01 T02240058  RH  035%=      5-min Rain = 0
KPAD 092310Z 19007KT 22/06 A3007 RMK A01 T02190064  RH  037%=      5-min Rain = 0
KPAD 092315Z 19008KT 21/07 A3007 RMK A01 T02140068  RH  040%=      5-min Rain = 0
KPAD 092320Z 19008KT 21/07 A3007 RMK A01 T02100069  RH  041%=      5-min Rain = 0
KPAD 092325Z 20007KT 20/07 A3007 RMK A01 T02030068  RH  043%=      5-min Rain = 0
KPAD 092330Z 20007KT 20/07 A3007 RMK A01 T01950066  RH  044%=      5-min Rain = 0
KPAD 092335Z 20007KT 19/07 A3007 RMK A01 T01880065  RH  046%=      5-min Rain = 0
KPAD 092340Z 20007KT 18/07 A3007 RMK A01 T01820065  RH  048%=      5-min Rain = 0
KPAD 092345Z 20007KT 18/07 A3007 RMK A01 T01760066  RH  050%=      5-min Rain = 0
KPAD 092350Z 20007KT 17/07 A3007 RMK A01 T01700067  RH  052%=      5-min Rain = 0
KPAD 092355Z 20007KT 17/07 A3007 RMK A01 T01660068  RH  054%=      5-min Rain = 0
KPAD 100000Z 20008KT 16/07 A3007 RMK A01 T01620069  RH  055%=      5-min Rain = 0
KPAD 100005Z 20007KT 16/07 A3007 RMK A01 T01610071  RH  057%=      5-min Rain = 0
KPAD 100010Z 21007KT 16/07 A3007 RMK A01 T01570072  RH  058%=      5-min Rain = 0
KPAD 100015Z 21008KT 15/08 A3007 RMK A01 T01540075  RH  061%=      5-min Rain = 0
KPAD 100020Z 21009KT 16/08 A3007 RMK A01 T01550077  RH  062%=      5-min Rain = 0
KPAD 100025Z 21008KT 15/08 A3007 RMK A01 T01540077  RH  061%=      5-min Rain = 0
KPAD 100030Z 21009KT 15/08 A3007 RMK A01 T01520076  RH  062%=      5-min Rain = 0
KPAD 100035Z 21009KT 15/08 A3007 RMK A01 T01500076  RH  063%=      5-min Rain = 0
KPAD 100040Z 21008KT 15/07 A3007 RMK A01 T01460074  RH  064%=      5-min Rain = 0
KPAD 100045Z 21008KT 14/07 A3007 RMK A01 T01420074  RH  065%=      5-min Rain = 0
KPAD 100050Z 22009KT 14/08 A3008 RMK A01 T01410076  RH  067%=      5-min Rain = 0
KPAD 100055Z 22009KT 14/08 A3008 RMK A01 T01410077  RH  067%=      5-min Rain = 0
KPAD 100100Z 22009KT 14/08 A3008 RMK A01 T01410076  RH  067%=      5-min Rain = 0
KPAD 100105Z 22009KT 14/08 A3008 RMK A01 T01390075  RH  067%=      5-min Rain = 0
KPAD 100110Z 22009KT 14/08 A3008 RMK A01 T01370075  RH  068%=      5-min Rain = 0
KPAD 100115Z 22009KT 14/07 A3008 RMK A01 T01360074  RH  068%=      5-min Rain = 0
KPAD 100120Z 22009KT 14/07 A3008 RMK A01 T01350074  RH  068%=      5-min Rain = 0
KPAD 100125Z 22009KT 14/07 A3008 RMK A01 T01350074  RH  068%=      5-min Rain = 0
KPAD 100130Z 22009KT 13/07 A3008 RMK A01 T01340074  RH  069%=      5-min Rain = 0
KPAD 100135Z 22009KT 13/07 A3008 RMK A01 T01320073  RH  069%=      5-min Rain = 0
KPAD 100140Z 22009KT 13/07 A3008 RMK A01 T01300073  RH  070%=      5-min Rain = 0
KPAD 100145Z 22008KT 13/07 A3008 RMK A01 T01280073  RH  071%=      5-min Rain = 0
KPAD 100150Z 22009KT 13/07 A3008 RMK A01 T01270074  RH  072%=      5-min Rain = 0
KPAD 100155Z 22009KT 13/08 A3008 RMK A01 T01260075  RH  073%=      5-min Rain = 0
KPAD 100200Z 22008KT 13/08 A3008 RMK A01 T01260076  RH  073%=      5-min Rain = 0
KPAD 100205Z 22009KT 13/08 A3008 RMK A01 T01250076  RH  074%=      5-min Rain = 0
KPAD 100210Z 22008KT 12/07 A3008 RMK A01 T01220074  RH  075%=      5-min Rain = 0
KPAD 100215Z 22009KT 12/07 A3008 RMK A01 T01190074  RH  076%=      5-min Rain = 0
KPAD 100220Z 22009KT 12/07 A3008 RMK A01 T01170074  RH  077%=      5-min Rain = 0
KPAD 100225Z 22009KT 12/07 A3008 RMK A01 T01150074  RH  078%=      5-min Rain = 0
KPAD 100230Z 22009KT 12/08 A3008 RMK A01 T01150076  RH  079%=      5-min Rain = 0
KPAD 100235Z 22009KT 12/08 A3008 RMK A01 T01170078  RH  079%=      5-min Rain = 0
KPAD 100240Z 23009KT 12/08 A3008 RMK A01 T01180078  RH  079%=      5-min Rain = 0
KPAD 100245Z 22009KT 12/08 A3007 RMK A01 T01170077  RH  079%=      5-min Rain = 0
KPAD 100250Z 22009KT 11/08 A3007 RMK A01 T01140075  RH  079%=      5-min Rain = 0
KPAD 100255Z 22009KT 11/07 A3008 RMK A01 T01110074  RH  080%=      5-min Rain = 0
KPAD 100300Z 22009KT 11/07 A3008 RMK A01 T01090074  RH  081%=      5-min Rain = 0
KPAD 100305Z 22009KT 11/07 A3008 RMK A01 T01070073  RH  082%=      5-min Rain = 0
KPAD 100310Z 22009KT 11/07 A3008 RMK A01 T01050073  RH  082%=      5-min Rain = 0
KPAD 100315Z 22009KT 11/07 A3008 RMK A01 T01050073  RH  083%=      5-min Rain = 0
KPAD 100320Z 22009KT 11/07 A3008 RMK A01 T01050074  RH  084%=      5-min Rain = 0
KPAD 100325Z 22010KT 11/08 A3008 RMK A01 T01060076  RH  084%=      5-min Rain = 0
KPAD 100330Z 22010KT 11/08 A3008 RMK A01 T01080078  RH  084%=      5-min Rain = 0
KPAD 100335Z 22010KT 11/08 A3008 RMK A01 T01090079  RH  084%=      5-min Rain = 0
KPAD 100340Z 22010KT 11/08 A3007 RMK A01 T01090078  RH  084%=      5-min Rain = 0
KPAD 100345Z 22009KT 11/08 A3008 RMK A01 T01060076  RH  084%=      5-min Rain = 0
KPAD 100350Z 22009KT 10/07 A3008 RMK A01 T01030074  RH  084%=      5-min Rain = 0
KPAD 100355Z 22009KT 10/07 A3008 RMK A01 T01010074  RH  085%=      5-min Rain = 0
KPAD 100400Z 22009KT 10/07 A3008 RMK A01 T01000074  RH  086%=      5-min Rain = 0
KPAD 100405Z 22009KT 10/08 A3008 RMK A01 T01010075  RH  086%=      5-min Rain = 0
KPAD 100410Z 22010KT 10/07 A3008 RMK A01 T01000074  RH  086%=      5-min Rain = 0
KPAD 100415Z 22010KT 10/08 A3008 RMK A01 T01000075  RH  087%=      5-min Rain = 0
KPAD 100420Z 22010KT 10/08 A3008 RMK A01 T01010076  RH  087%=      5-min Rain = 0
KPAD 100425Z 22010KT 10/08 A3007 RMK A01 T01030077  RH  087%=      5-min Rain = 0
KPAD 100430Z 22010KT 10/08 A3007 RMK A01 T01040078  RH  086%=      5-min Rain = 0
KPAD 100435Z 22010KT 10/08 A3007 RMK A01 T01040078  RH  086%=      5-min Rain = 0
KPAD 100440Z 23009KT 11/08 A3007 RMK A01 T01060080  RH  087%=      5-min Rain = 0
KPAD 100445Z 23009KT 11/08 A3007 RMK A01 T01080081  RH  086%=      5-min Rain = 0
KPAD 100450Z 23009KT 11/08 A3007 RMK A01 T01100082  RH  085%=      5-min Rain = 0
KPAD 100455Z 23009KT 11/08 A3007 RMK A01 T01120082  RH  084%=      5-min Rain = 0
KPAD 100500Z 23009KT 11/08 A3007 RMK A01 T01120082  RH  084%=      5-min Rain = 0
KPAD 100505Z 23008KT 11/08 A3007 RMK A01 T01120081  RH  084%=      5-min Rain = 0
KPAD 100510Z 23009KT 11/08 A3007 RMK A01 T01110081  RH  084%=      5-min Rain = 0
KPAD 100515Z 23010KT 11/08 A3007 RMK A01 T01120082  RH  084%=      5-min Rain = 0
KPAD 100520Z 23010KT 11/08 A3007 RMK A01 T01140084  RH  084%=      5-min Rain = 0
KPAD 100525Z 23010KT 12/09 A3007 RMK A01 T01160085  RH  083%=      5-min Rain = 0
KPAD 100530Z 23010KT 12/09 A3007 RMK A01 T01180085  RH  083%=      5-min Rain = 0
KPAD 100535Z 23010KT 12/09 A3007 RMK A01 T01180085  RH  083%=      5-min Rain = 0
KPAD 100540Z 23010KT 12/09 A3006 RMK A01 T01180085  RH  082%=      5-min Rain = 0
KPAD 100545Z 23010KT 12/09 A3006 RMK A01 T01180085  RH  082%=      5-min Rain = 0
KPAD 100550Z 23010KT 12/09 A3006 RMK A01 T01180085  RH  083%=      5-min Rain = 0
KPAD 100555Z 23010KT 12/09 A3006 RMK A01 T01190086  RH  082%=      5-min Rain = 0

Page generated in 0.0095 seconds.